Time;durP1;ratioP1;P1;durP2;ratioP2;P2;SDS_P1;SDS_P2;PMS_P1;PMS_P2;Temp;Humidity;BMP_temperature;BMP_pressure;BME280_temperature;BME280_humidity;BME280_pressure;Samples;Min_cycle;Max_cycle;Signal;HPM_P1;HPM_P2
2023/07/22 04:32:26;;;;;;;;;10.50;9.00;;;;;24.50;34.15;101200.75;4243997;26;45836;-72
2023/07/22 04:34:52;;;;;;;;;9.00;7.50;;;;;24.48;34.35;101211.03;4975779;28;46327;-75
2023/07/22 04:37:18;;;;;;;;;8.50;8.50;;;;;24.42;34.26;101206.09;4977427;28;45523;-70
2023/07/22 04:39:48;;;;;;;;;9.00;9.00;;;;;24.37;34.74;101212.06;4971642;28;45440;-70
2023/07/22 04:42:13;;;;;;;;;11.50;8.50;;;;;24.46;34.48;101205.69;4968604;28;45511;-70
2023/07/22 04:44:38;;;;;;;;;11.75;10.00;;;;;24.52;34.34;101212.44;4976204;28;45424;-70
2023/07/22 04:47:04;;;;;;;;;9.75;9.75;;;;;24.44;34.63;101221.41;4976231;28;45420;-69
2023/07/22 04:49:30;;;;;;;;;8.75;7.50;;;;;24.48;33.97;101216.50;4976470;28;45551;-71
2023/07/22 04:51:56;;;;;;;;;5.75;5.75;;;;;24.50;34.17;101229.03;4976320;28;45313;-70
2023/07/22 04:54:21;;;;;;;;;8.75;8.75;;;;;24.61;34.28;101224.38;4975820;28;52796;-70
2023/07/22 04:56:46;;;;;;;;;8.50;6.25;;;;;24.43;34.18;101229.78;4976385;28;45324;-71
2023/07/22 04:59:13;;;;;;;;;8.00;8.00;;;;;24.30;34.54;101213.66;4976062;28;45381;-69
2023/07/22 05:01:39;;;;;;;;;11.75;9.00;;;;;24.45;34.92;101230.50;4976080;28;45254;-72
2023/07/22 05:04:06;;;;;;;;;9.75;8.75;;;;;24.38;34.67;101216.53;4976008;28;45677;-71
2023/07/22 05:06:31;;;;;;;;;9.75;9.50;;;;;24.45;34.49;101216.78;4970561;28;45273;-70
2023/07/22 05:08:56;;;;;;;;;8.00;8.00;;;;;24.42;34.78;101220.69;4974264;28;45372;-72
2023/07/22 05:11:23;;;;;;;;;8.50;8.50;;;;;24.44;34.63;101220.53;4975898;28;47808;-70
2023/07/22 05:13:48;;;;;;;;;9.75;9.75;;;;;24.41;34.41;101221.69;4975649;28;45456;-71
2023/07/22 05:16:14;;;;;;;;;8.00;8.00;;;;;24.46;34.66;101219.38;4975437;28;45294;-71
2023/07/22 05:18:39;;;;;;;;;8.00;8.00;;;;;24.39;34.74;101210.03;4975938;28;45694;-72
2023/07/22 05:21:04;;;;;;;;;8.00;8.00;;;;;24.40;34.56;101208.16;4975681;28;46598;-71
2023/07/22 05:23:30;;;;;;;;;5.50;2.50;;;;;24.28;34.42;101191.00;4975699;28;45493;-71
2023/07/22 05:25:55;;;;;;;;;9.00;9.00;;;;;24.40;34.80;101206.28;4975459;28;50252;-70
2023/07/22 05:28:20;;;;;;;;;7.00;7.00;;;;;24.58;34.66;101217.34;4975972;28;45347;-69
2023/07/22 05:30:46;;;;;;;;;10.00;8.25;;;;;24.43;34.92;101205.09;4975277;28;45330;-73
2023/07/22 05:33:12;;;;;;;;;7.00;7.00;;;;;24.36;35.04;101207.56;4975524;28;46127;-72
2023/07/22 05:35:38;;;;;;;;;13.00;11.00;;;;;24.48;35.25;101214.63;4975741;28;45385;-71
2023/07/22 05:38:04;;;;;;;;;9.25;8.50;;;;;24.56;34.88;101213.00;4975493;28;45657;-71
2023/07/22 05:40:30;;;;;;;;;8.00;8.00;;;;;24.57;34.71;101214.75;4964493;28;45461;-72
2023/07/22 05:42:56;;;;;;;;;7.50;7.50;;;;;24.59;35.06;101202.59;4955628;28;46076;-71
2023/07/22 05:45:21;;;;;;;;;7.00;7.00;;;;;24.61;34.84;101211.53;4955947;28;45286;-71
2023/07/22 05:47:46;;;;;;;;;9.00;9.00;;;;;24.62;35.31;101207.78;4955605;28;45406;-70
2023/07/22 05:50:11;;;;;;;;;11.50;10.00;;;;;24.65;35.04;101220.34;4955936;28;48092;-71
2023/07/22 05:52:37;;;;;;;;;9.00;7.75;;;;;24.66;35.00;101225.69;4955681;28;46393;-72
2023/07/22 05:55:02;;;;;;;;;10.00;7.50;;;;;24.60;34.94;101217.16;4955814;28;45402;-71
2023/07/22 05:57:28;;;;;;;;;8.75;8.00;;;;;24.65;35.26;101213.00;4955694;28;45406;-71
2023/07/22 05:59:54;;;;;;;;;6.75;6.00;;;;;24.66;35.39;101208.38;4955624;28;45266;-71
2023/07/22 06:02:19;;;;;;;;;10.25;8.00;;;;;24.75;35.22;101226.66;4958971;28;45468;-70
2023/07/22 06:04:44;;;;;;;;;8.75;8.75;;;;;24.88;35.42;101218.94;4975315;28;45305;-72
2023/07/22 06:07:10;;;;;;;;;8.75;8.25;;;;;24.94;35.39;101214.75;4968315;28;45458;-71
2023/07/22 06:09:35;;;;;;;;;6.75;6.25;;;;;24.90;35.50;101216.94;4957524;28;45373;-71
2023/07/22 06:12:01;;;;;;;;;6.25;6.25;;;;;24.88;35.58;101206.09;4957267;28;46421;-72
2023/07/22 06:14:27;;;;;;;;;6.25;5.25;;;;;24.94;35.29;101221.09;4957309;28;45733;-76
2023/07/22 06:16:52;;;;;;;;;7.75;7.75;;;;;25.00;35.90;101216.91;4974537;28;45417;-74
2023/07/22 06:19:18;;;;;;;;;8.25;7.00;;;;;25.04;35.67;101210.97;4957139;28;45668;-75
2023/07/22 06:21:45;;;;;;;;;12.50;11.00;;;;;25.01;36.36;101215.91;4974733;28;46248;-75
2023/07/22 06:24:10;;;;;;;;;10.25;8.50;;;;;25.10;36.47;101215.81;4975036;28;45298;-72
2023/07/22 06:26:36;;;;;;;;;11.00;9.50;;;;;25.25;36.09;101225.28;4974901;28;45199;-73
2023/07/22 06:29:02;;;;;;;;;11.50;9.75;;;;;25.32;36.19;101224.69;4974341;28;45381;-70
2023/07/22 06:31:30;;;;;;;;;8.50;8.00;;;;;25.31;36.62;101207.34;4974272;28;46981;-71
2023/07/22 06:34:02;;;;;;;;;7.00;6.50;;;;;25.39;36.30;101196.44;4974768;28;45430;-72
2023/07/22 06:36:28;;;;;;;;;8.00;8.00;;;;;25.66;37.39;101217.53;4974825;28;45442;-72
2023/07/22 06:38:54;;;;;;;;;9.75;8.50;;;;;25.65;37.46;101224.03;4974606;28;45221;-71
2023/07/22 06:41:20;;;;;;;;;9.00;8.50;;;;;25.58;37.70;101214.66;4956375;28;47374;-75
2023/07/22 06:43:46;;;;;;;;;9.25;9.25;;;;;25.59;38.06;101219.19;4954920;28;45380;-71
2023/07/22 06:46:11;;;;;;;;;9.00;9.00;;;;;25.40;38.44;101216.53;4955384;28;45325;-72
2023/07/22 06:48:36;;;;;;;;;10.00;8.75;;;;;25.49;38.35;101212.84;4974402;28;45310;-74
2023/07/22 06:51:02;;;;;;;;;9.50;9.50;;;;;25.60;38.73;101216.25;4974264;28;45362;-73
2023/07/22 06:53:28;;;;;;;;;7.00;7.00;;;;;25.75;38.33;101211.09;4974548;28;45392;-75
2023/07/22 06:55:53;;;;;;;;;7.25;7.25;;;;;25.88;38.24;101217.03;4974329;28;45331;-73
2023/07/22 06:58:27;;;;;;;;;8.25;7.25;;;;;25.92;38.77;101223.97;4974470;28;45360;-73
2023/07/22 07:00:53;;;;;;;;;11.25;11.25;;;;;25.79;38.94;101217.13;4973913;28;46131;-76
2023/07/22 07:03:18;;;;;;;;;8.00;7.00;;;;;25.81;39.15;101221.44;4974309;28;45570;-73
2023/07/22 07:05:44;;;;;;;;;8.00;8.00;;;;;25.86;38.80;101219.06;4974300;28;45538;-71
2023/07/22 07:08:12;;;;;;;;;7.25;7.25;;;;;25.99;38.34;101225.06;4949588;28;46289;-70
2023/07/22 07:10:39;;;;;;;;;11.75;9.50;;;;;25.96;37.71;101211.63;4974069;28;45373;-69
2023/07/22 07:13:04;;;;;;;;;6.75;6.75;;;;;25.89;37.61;101213.28;4974308;28;45457;-70
2023/07/22 07:15:29;;;;;;;;;6.50;6.25;;;;;25.96;37.66;101228.09;4956265;28;45267;-71
2023/07/22 07:17:55;;;;;;;;;8.75;7.00;;;;;26.06;37.82;101213.41;4974155;28;45295;-70
2023/07/22 07:20:20;;;;;;;;;8.50;8.00;;;;;26.03;37.19;101209.09;4974005;28;46273;-70
2023/07/22 07:22:46;;;;;;;;;11.00;9.00;;;;;26.19;36.95;101216.63;4974371;28;45402;-69
2023/07/22 07:25:11;;;;;;;;;9.00;7.75;;;;;26.36;36.94;101202.88;4974213;28;45464;-70
2023/07/22 07:27:37;;;;;;;;;6.75;5.50;;;;;26.46;36.68;101219.25;4974401;28;45539;-71
2023/07/22 07:30:02;;;;;;;;;9.00;7.75;;;;;26.47;36.57;101214.63;4974919;28;45377;-72
2023/07/22 07:32:28;;;;;;;;;12.00;9.00;;;;;26.64;36.28;101213.69;4977311;28;45424;-72
2023/07/22 07:34:53;;;;;;;;;9.25;8.25;;;;;26.58;36.30;101206.09;4977654;28;45333;-70
2023/07/22 07:37:18;;;;;;;;;9.00;7.00;;;;;26.62;35.97;101213.88;4977484;28;45464;-73
2023/07/22 07:39:44;;;;;;;;;9.25;9.00;;;;;26.66;36.08;101226.25;4972353;28;45289;-71
2023/07/22 07:42:09;;;;;;;;;10.25;9.00;;;;;26.79;35.71;101228.59;4957936;28;45318;-71
2023/07/22 07:44:34;;;;;;;;;8.00;6.75;;;;;26.80;36.14;101235.78;4957722;28;45378;-70
2023/07/22 07:47:00;;;;;;;;;9.50;9.50;;;;;26.69;36.13;101217.69;4957922;28;45420;-72
2023/07/22 07:49:26;;;;;;;;;7.25;7.25;;;;;26.72;36.07;101217.34;4957504;28;46323;-73
2023/07/22 07:51:52;;;;;;;;;8.50;8.50;;;;;26.85;36.57;101232.56;4957967;28;45214;-70
2023/07/22 07:54:17;;;;;;;;;7.75;7.75;;;;;26.63;36.17;101209.22;4957777;28;45539;-72
2023/07/22 07:56:42;;;;;;;;;11.00;9.25;;;;;26.33;36.15;101227.94;4957691;28;45507;-72
2023/07/22 07:59:09;;;;;;;;;10.75;7.25;;;;;26.54;35.84;101215.72;4957369;28;46247;-72
2023/07/22 08:01:35;;;;;;;;;7.75;6.50;;;;;26.62;35.68;101229.53;4957791;28;45271;-71
2023/07/22 08:04:01;;;;;;;;;7.00;7.00;;;;;26.49;35.73;101223.56;4974795;28;45304;-72
2023/07/22 08:06:26;;;;;;;;;7.00;7.00;;;;;26.57;35.43;101231.88;4972080;28;45286;-72
2023/07/22 08:08:51;;;;;;;;;9.25;9.25;;;;;26.59;35.32;101216.09;4974467;28;45426;-72
2023/07/22 08:11:16;;;;;;;;;11.00;8.50;;;;;26.75;35.05;101225.28;4976911;28;49386;-72
2023/07/22 08:13:43;;;;;;;;;8.50;8.50;;;;;26.90;35.21;101220.03;4976689;28;45554;-71
2023/07/22 08:16:11;;;;;;;;;7.00;5.00;;;;;27.11;35.34;101216.91;4976818;28;45478;-71
2023/07/22 08:18:37;;;;;;;;;8.75;8.75;;;;;27.14;35.17;101208.28;4976779;28;45401;-72
2023/07/22 08:21:04;;;;;;;;;6.75;6.75;;;;;27.13;34.12;101214.84;4959150;28;45438;-71
2023/07/22 08:23:29;;;;;;;;;4.50;4.50;;;;;27.26;34.42;101195.97;4976791;28;45338;-72
2023/07/22 08:25:55;;;;;;;;;5.00;5.00;;;;;27.39;34.28;101209.25;4976691;28;45535;-71
2023/07/22 08:28:20;;;;;;;;;7.25;7.00;;;;;27.15;34.29;101215.53;4939672;28;47501;-71
2023/07/22 08:30:48;;;;;;;;;4.75;4.75;;;;;27.26;33.23;101184.09;4967228;28;45402;-71
2023/07/22 08:33:13;;;;;;;;;8.50;8.50;;;;;27.48;33.25;101198.06;4976728;28;45310;-71
2023/07/22 08:35:39;;;;;;;;;9.00;6.00;;;;;27.36;33.02;101212.34;4976259;28;45339;-71
2023/07/22 08:38:05;;;;;;;;;6.25;6.25;;;;;27.31;33.31;101199.06;4972530;28;45358;-71
2023/07/22 08:40:39;;;;;;;;;7.50;6.50;;;;;27.22;33.42;101204.72;4959586;28;45555;-70
2023/07/22 08:43:06;;;;;;;;;7.00;7.00;;;;;27.09;33.18;101207.94;4960641;28;45384;-71
2023/07/22 08:45:37;;;;;;;;;6.50;6.00;;;;;27.15;33.63;101198.16;4964646;28;45562;-71
2023/07/22 08:48:11;;;;;;;;;5.75;5.75;;;;;27.08;33.07;101195.19;4953948;28;46082;-71
2023/07/22 08:50:53;;;;;;;;;5.00;5.00;;;;;27.09;33.64;101203.31;4950528;28;45674;-72
2023/07/22 08:53:23;;;;;;;;;6.50;5.00;;;;;27.05;33.19;101204.63;4954009;28;45485;-72
2023/07/22 08:55:49;;;;;;;;;9.00;8.00;;;;;27.16;33.38;101203.50;4952838;28;46464;-70
2023/07/22 08:58:16;;;;;;;;;12.50;7.75;;;;;27.27;33.56;101191.31;4956546;28;46576;-71
2023/07/22 09:00:42;;;;;;;;;6.75;6.75;;;;;27.23;33.60;101198.16;4956342;28;45474;-73
2023/07/22 09:03:08;;;;;;;;;8.25;7.00;;;;;27.43;34.04;101205.97;4966467;28;45342;-72
2023/07/22 09:05:35;;;;;;;;;6.00;6.00;;;;;27.23;32.70;101201.78;4974702;28;45531;-72
2023/07/22 09:08:04;;;;;;;;;10.00;6.75;;;;;27.27;33.22;101194.94;4950930;28;48324;-72
2023/07/22 09:10:31;;;;;;;;;9.25;9.25;;;;;27.47;32.82;101187.25;4958495;28;45435;-71
2023/07/22 09:12:57;;;;;;;;;5.00;5.00;;;;;27.37;33.07;101184.63;4976073;28;45255;-71
2023/07/22 09:15:23;;;;;;;;;6.75;6.75;;;;;27.39;32.21;101199.06;4975757;28;45302;-71
2023/07/22 09:17:49;;;;;;;;;6.00;6.00;;;;;27.37;32.06;101192.03;4976114;28;45163;-71
2023/07/22 09:20:15;;;;;;;;;6.50;6.50;;;;;27.51;31.79;101188.63;4975922;28;45287;-71
2023/07/22 09:22:48;;;;;;;;;6.50;6.50;;;;;27.53;31.50;101189.31;4976077;28;45328;-72
2023/07/22 09:25:18;;;;;;;;;8.25;6.25;;;;;27.55;31.76;101178.16;4958328;28;45300;-72
2023/07/22 09:27:45;;;;;;;;;6.00;6.00;;;;;27.45;31.81;101178.28;4975908;28;46608;-71
2023/07/22 09:30:22;;;;;;;;;7.50;6.00;;;;;27.58;32.01;101186.06;4975612;28;45298;-71
2023/07/22 09:32:48;;;;;;;;;5.25;5.25;;;;;27.83;31.72;101185.06;4975528;28;45381;-72
2023/07/22 09:35:13;;;;;;;;;8.00;5.75;;;;;27.74;31.79;101181.44;4975865;28;45217;-72
2023/07/22 09:37:39;;;;;;;;;7.00;7.00;;;;;27.82;31.46;101173.19;4957783;28;47570;-71
2023/07/22 09:40:26;;;;;;;;;7.00;7.00;;;;;27.74;32.02;101166.78;4950796;28;45541;-71
2023/07/22 09:42:56;;;;;;;;;3.00;3.00;;;;;27.65;31.84;101168.69;4956376;28;45382;-72
2023/07/22 09:45:24;;;;;;;;;7.50;6.00;;;;;27.77;31.78;101171.97;4938847;28;45363;-71
2023/07/22 09:47:52;;;;;;;;;4.50;4.50;;;;;27.71;32.31;101179.03;4955735;28;46446;-70
2023/07/22 09:50:19;;;;;;;;;7.25;6.25;;;;;27.79;31.33;101183.69;4966993;28;45346;-71
2023/07/22 09:52:51;;;;;;;;;5.50;5.50;;;;;27.92;31.40;101161.97;4974141;28;45401;-71
2023/07/22 09:55:19;;;;;;;;;4.50;4.50;;;;;28.03;30.99;101153.38;4975457;28;45405;-70
2023/07/22 09:57:53;;;;;;;;;4.75;4.75;;;;;28.13;30.90;101159.56;4975300;28;46266;-72
2023/07/22 10:00:20;;;;;;;;;5.75;5.75;;;;;27.65;31.15;101149.41;4975003;28;45337;-72
2023/07/22 10:02:49;;;;;;;;;6.00;5.50;;;;;28.20;30.43;101174.41;4974457;28;45480;-72
2023/07/22 10:05:16;;;;;;;;;4.75;4.75;;;;;28.17;31.05;101155.44;4975236;28;45522;-69
2023/07/22 10:07:48;;;;;;;;;7.50;5.75;;;;;28.38;30.37;101165.06;4967999;28;46666;-73
2023/07/22 10:10:16;;;;;;;;;5.25;5.25;;;;;28.67;30.63;101158.97;4973534;28;45392;-71
2023/07/22 10:12:45;;;;;;;;;6.25;6.25;;;;;28.84;30.21;101146.84;4974811;28;45434;-72
2023/07/22 10:15:12;;;;;;;;;6.00;6.00;;;;;28.93;30.01;101154.03;4974965;28;45223;-71
2023/07/22 10:17:39;;;;;;;;;5.25;5.25;;;;;28.73;29.88;101155.50;4975016;28;45271;-70
2023/07/22 10:20:07;;;;;;;;;6.00;6.00;;;;;28.89;30.09;101156.31;4974536;28;45342;-73
2023/07/22 10:22:37;;;;;;;;;5.25;5.25;;;;;28.93;29.78;101160.41;4975198;28;45314;-70
2023/07/22 10:25:06;;;;;;;;;6.00;6.00;;;;;28.96;29.41;101159.22;4974933;28;45273;-71
2023/07/22 10:27:33;;;;;;;;;7.75;7.75;;;;;28.98;29.95;101151.63;4974603;28;47105;-71
2023/07/22 10:29:59;;;;;;;;;7.25;6.00;;;;;29.05;29.55;101158.13;4974383;28;45334;-72
2023/07/22 10:32:24;;;;;;;;;6.25;6.25;;;;;29.33;29.55;101152.97;4974590;28;45601;-72
2023/07/22 10:34:49;;;;;;;;;5.75;5.75;;;;;29.18;29.00;101149.25;4974727;28;45387;-72
2023/07/22 10:37:18;;;;;;;;;4.50;4.50;;;;;29.31;29.20;101149.53;4974319;28;45397;-70
2023/07/22 10:39:43;;;;;;;;;5.00;5.00;;;;;29.22;29.13;101145.09;4969732;28;45402;-73
2023/07/22 10:42:08;;;;;;;;;4.25;3.75;;;;;29.36;29.00;101152.63;4955137;28;45308;-69
2023/07/22 10:44:38;;;;;;;;;6.75;5.00;;;;;29.39;28.21;101143.97;4954634;28;45496;-71
2023/07/22 10:47:04;;;;;;;;;6.25;6.25;;;;;29.40;28.58;101142.94;4966007;28;49046;-75
2023/07/22 10:49:48;;;;;;;;;5.75;5.75;;;;;29.43;28.30;101150.88;4973996;28;45421;-73
2023/07/22 10:52:17;;;;;;;;;4.75;4.75;;;;;29.63;28.03;101138.28;4974527;28;45269;-70
2023/07/22 10:54:42;;;;;;;;;7.50;7.50;;;;;29.48;27.93;101140.13;4974593;28;45217;-75
2023/07/22 10:57:16;;;;;;;;;6.50;6.50;;;;;29.85;28.48;101142.09;4974287;28;46016;-72
2023/07/22 10:59:49;;;;;;;;;5.50;5.50;;;;;29.92;27.34;101136.66;4974920;28;45212;-76
2023/07/22 11:02:29;;;;;;;;;8.00;7.00;;;;;29.88;27.74;101130.63;4974434;28;45294;-73
2023/07/22 11:05:03;;;;;;;;;5.75;5.00;;;;;29.51;27.56;101134.25;4977291;28;45230;-75
2023/07/22 11:07:43;;;;;;;;;4.50;4.50;;;;;29.69;27.58;101126.47;4972019;28;46186;-77
2023/07/22 11:10:18;;;;;;;;;5.50;4.50;;;;;29.83;27.52;101122.06;4979746;28;45636;-77
2023/07/22 11:12:45;;;;;;;;;5.50;4.25;;;;;29.92;27.27;101126.47;4978913;28;45353;-72
2023/07/22 11:15:10;;;;;;;;;4.50;3.00;;;;;29.93;27.16;101116.28;4977727;28;45243;-73
2023/07/22 11:17:37;;;;;;;;;5.00;5.00;;;;;30.08;26.77;101115.28;4976604;28;45409;-72
2023/07/22 11:20:03;;;;;;;;;3.50;3.50;;;;;30.23;26.00;101103.38;4961348;28;45314;-71
2023/07/22 11:22:29;;;;;;;;;5.00;3.00;;;;;30.29;26.35;101103.47;4965421;28;45551;-72
2023/07/22 11:24:57;;;;;;;;;3.50;3.50;;;;;30.08;26.62;101103.34;4976148;28;45421;-73
2023/07/22 11:27:23;;;;;;;;;5.50;4.25;;;;;30.26;26.33;101101.09;4977598;28;45328;-73
2023/07/22 11:29:49;;;;;;;;;4.25;4.25;;;;;30.14;26.23;101090.66;4977072;28;45416;-72
2023/07/22 11:32:16;;;;;;;;;5.50;5.50;;;;;30.28;26.19;101101.78;4977290;28;45388;-74
2023/07/22 11:34:44;;;;;;;;;4.00;4.00;;;;;30.34;26.37;101105.66;4977219;28;45496;-69
2023/07/22 11:37:09;;;;;;;;;3.50;3.50;;;;;30.51;26.16;101110.00;4983297;28;46208;-68
2023/07/22 11:39:36;;;;;;;;;4.00;4.00;;;;;30.34;26.55;101114.84;4984314;28;45974;-68
2023/07/22 11:42:02;;;;;;;;;4.00;4.00;;;;;30.38;26.38;101107.84;4966741;28;45369;-74
2023/07/22 11:44:28;;;;;;;;;2.75;2.75;;;;;30.35;26.12;101104.63;4957227;28;45553;-70
2023/07/22 11:46:59;;;;;;;;;4.25;4.00;;;;;30.40;26.30;101089.16;4957734;28;45354;-72
2023/07/22 11:49:25;;;;;;;;;6.00;5.00;;;;;30.52;25.76;101088.72;4957738;28;45487;-73
2023/07/22 11:51:51;;;;;;;;;5.75;4.00;;;;;30.60;25.97;101094.16;4968049;28;45422;-70
2023/07/22 11:54:17;;;;;;;;;3.00;3.00;;;;;30.85;25.42;101090.00;4976973;28;45331;-70
2023/07/22 11:56:42;;;;;;;;;3.50;3.50;;;;;30.85;25.58;101078.94;4977587;28;45370;-72
2023/07/22 11:59:08;;;;;;;;;2.75;2.75;;;;;30.91;26.04;101077.28;4977024;28;45278;-71
2023/07/22 12:01:34;;;;;;;;;4.00;4.00;;;;;30.90;25.49;101079.19;4977343;28;45348;-73
2023/07/22 12:04:00;;;;;;;;;4.50;4.50;;;;;31.00;25.89;101065.03;4959392;28;46019;-71
2023/07/22 12:06:26;;;;;;;;;5.25;3.75;;;;;31.15;25.85;101058.44;4972627;28;45951;-71
2023/07/22 12:08:52;;;;;;;;;3.50;3.50;;;;;31.13;25.64;101055.03;4974519;28;45202;-70
2023/07/22 12:11:24;;;;;;;;;4.75;4.75;;;;;31.06;25.20;101065.09;4977081;28;45492;-71
2023/07/22 12:14:13;;;;;;;;;4.75;4.75;;;;;31.22;24.92;101066.81;4976768;28;45655;-70
2023/07/22 12:16:42;;;;;;;;;4.00;4.00;;;;;31.36;24.97;101065.03;4958361;28;47481;-70
2023/07/22 12:19:09;;;;;;;;;3.75;3.75;;;;;31.59;25.32;101049.06;4976475;28;45414;-71
2023/07/22 12:21:35;;;;;;;;;4.00;4.00;;;;;31.51;25.28;101051.97;4977001;28;45382;-69
2023/07/22 12:24:01;;;;;;;;;4.00;4.00;;;;;31.38;25.41;101054.63;4977150;28;45299;-71
2023/07/22 12:26:27;;;;;;;;;5.00;5.00;;;;;31.44;25.02;101059.38;4976717;28;46122;-77
2023/07/22 12:28:52;;;;;;;;;3.75;3.75;;;;;31.56;24.26;101049.44;4976870;28;45381;-73
2023/07/22 12:31:17;;;;;;;;;2.50;2.50;;;;;31.65;24.76;101055.72;4976513;28;45503;-73
2023/07/22 12:33:43;;;;;;;;;3.50;3.50;;;;;31.85;24.50;101052.06;4976765;28;45607;-73
2023/07/22 12:36:08;;;;;;;;;4.75;4.75;;;;;32.13;24.21;101034.56;4976758;28;45973;-72
2023/07/22 12:38:34;;;;;;;;;4.75;4.75;;;;;32.28;23.97;101046.41;4976971;28;45425;-72
2023/07/22 12:41:00;;;;;;;;;4.50;4.25;;;;;32.47;24.26;101036.50;4962019;28;45362;-75
2023/07/22 12:43:28;;;;;;;;;3.50;3.50;;;;;32.44;24.26;101028.56;4956904;28;45358;-74
2023/07/22 12:45:53;;;;;;;;;7.25;4.00;;;;;32.68;23.98;101019.69;4964251;28;46047;-73
2023/07/22 12:48:19;;;;;;;;;2.75;2.75;;;;;32.64;23.93;101030.38;4967870;28;45475;-72
2023/07/22 12:50:45;;;;;;;;;5.75;4.25;;;;;32.65;24.11;101029.31;4969948;28;45447;-71
2023/07/22 12:53:10;;;;;;;;;3.25;3.25;;;;;32.86;23.45;101021.94;4964076;28;45484;-73
2023/07/22 12:55:35;;;;;;;;;4.25;4.25;;;;;32.96;23.70;101016.84;4967747;28;47608;-72
2023/07/22 12:58:01;;;;;;;;;4.25;4.25;;;;;33.16;22.88;101041.91;4964103;28;45353;-73
2023/07/22 13:00:27;;;;;;;;;6.25;4.00;;;;;33.15;22.67;101037.41;4974099;28;45618;-74
2023/07/22 13:02:53;;;;;;;;;2.00;2.00;;;;;33.41;21.72;101031.91;4956817;28;45478;-74
2023/07/22 13:05:18;;;;;;;;;3.00;3.00;;;;;33.20;22.59;101044.03;4955710;28;45502;-74
2023/07/22 13:07:44;;;;;;;;;3.50;3.50;;;;;33.00;22.42;101026.47;4970396;28;45540;-75
2023/07/22 13:10:12;;;;;;;;;2.50;2.25;;;;;33.17;22.60;101032.50;4965590;28;45509;-76
2023/07/22 13:12:37;;;;;;;;;3.00;3.00;;;;;33.22;22.29;101021.63;4965915;28;45512;-76
2023/07/22 13:15:04;;;;;;;;;2.75;2.75;;;;;33.76;22.54;101019.53;4963354;28;46206;-75
2023/07/22 13:17:29;;;;;;;;;4.50;4.50;;;;;33.76;22.48;101005.63;4956110;28;45404;-76
2023/07/22 13:19:57;;;;;;;;;4.00;4.00;;;;;33.89;22.39;101021.44;4956073;28;46103;-75
2023/07/22 13:22:23;;;;;;;;;3.25;3.25;;;;;33.78;22.95;101019.31;4964867;28;45403;-75
2023/07/22 13:24:48;;;;;;;;;3.50;3.50;;;;;33.91;22.51;101012.88;4955967;28;46355;-75
2023/07/22 13:27:13;;;;;;;;;3.00;3.00;;;;;34.04;22.38;101018.41;4938711;28;45414;-75
2023/07/22 13:29:39;;;;;;;;;5.25;5.25;;;;;33.56;22.16;101034.47;4956123;28;45414;-77
2023/07/22 13:32:05;;;;;;;;;5.50;4.00;;;;;33.29;23.02;101026.13;4955638;28;45270;-73
2023/07/22 13:34:30;;;;;;;;;4.00;3.00;;;;;33.36;22.95;101009.44;4955468;28;45442;-73
2023/07/22 13:36:56;;;;;;;;;4.00;3.50;;;;;33.35;22.49;101008.59;4956214;28;45372;-73
2023/07/22 13:39:22;;;;;;;;;4.00;4.00;;;;;33.24;23.10;101017.56;4959297;28;45364;-73
2023/07/22 13:41:47;;;;;;;;;5.00;4.00;;;;;33.39;22.67;101007.09;4964067;28;45464;-74
2023/07/22 13:44:13;;;;;;;;;4.00;4.00;;;;;33.46;22.81;101014.56;4955396;28;48303;-73
2023/07/22 13:46:38;;;;;;;;;4.00;4.00;;;;;33.55;22.46;101007.75;4964154;28;45459;-77
2023/07/22 13:49:04;;;;;;;;;3.00;3.00;;;;;33.45;22.64;101002.59;4956073;28;45388;-79
2023/07/22 13:51:29;;;;;;;;;4.75;4.75;;;;;33.35;23.03;100999.38;4956280;28;45272;-75
2023/07/22 13:53:54;;;;;;;;;3.25;3.25;;;;;33.44;22.42;100996.19;4967109;28;45354;-74
2023/07/22 13:56:20;;;;;;;;;4.25;4.25;;;;;33.26;22.74;100984.84;4975517;28;45830;-75
2023/07/22 13:58:45;;;;;;;;;3.75;3.75;;;;;33.33;22.78;101001.53;4957222;28;45557;-74
2023/07/22 14:01:11;;;;;;;;;7.00;5.25;;;;;33.38;22.89;101010.94;4975474;28;45235;-74
2023/07/22 14:03:36;;;;;;;;;5.25;4.00;;;;;33.85;23.08;100994.28;4975382;28;45568;-74
2023/07/22 14:06:02;;;;;;;;;5.00;5.00;;;;;34.05;22.01;100982.03;4985498;28;45485;-74
2023/07/22 14:08:28;;;;;;;;;6.25;5.25;;;;;34.00;22.39;101006.00;4978252;28;45388;-74
2023/07/22 14:10:53;;;;;;;;;2.75;2.75;;;;;33.92;22.40;101003.47;4975213;28;45528;-74
2023/07/22 14:13:18;;;;;;;;;6.75;5.75;;;;;33.83;21.72;100997.28;4982527;28;45429;-74
2023/07/22 14:15:44;;;;;;;;;3.75;3.00;;;;;33.63;22.49;100979.72;4976623;28;45222;-75
2023/07/22 14:18:09;;;;;;;;;5.00;4.75;;;;;33.89;22.59;100988.06;4981366;28;45774;-74
2023/07/22 14:20:35;;;;;;;;;3.00;3.00;;;;;34.10;21.81;100973.03;4975277;28;45524;-74
2023/07/22 14:23:00;;;;;;;;;5.50;4.75;;;;;34.63;22.02;100962.53;4975175;28;46032;-75
2023/07/22 14:25:29;;;;;;;;;3.50;3.50;;;;;34.74;21.27;100966.59;4957506;28;45459;-76
2023/07/22 14:27:54;;;;;;;;;4.50;4.50;;;;;34.96;21.37;100967.09;4975123;28;45412;-75
2023/07/22 14:30:19;;;;;;;;;6.00;4.75;;;;;35.14;21.05;100965.22;4974675;28;45604;-74
2023/07/22 14:32:45;;;;;;;;;6.75;5.00;;;;;35.63;20.34;100963.59;4974606;28;45575;-74
2023/07/22 14:35:10;;;;;;;;;4.00;4.00;;;;;36.38;20.53;100951.19;4975296;28;45301;-75
2023/07/22 14:37:37;;;;;;;;;6.00;6.00;;;;;36.90;19.93;100948.75;4957466;28;45369;-74
2023/07/22 14:40:04;;;;;;;;;5.00;5.00;;;;;36.76;19.18;100944.44;4974258;28;45452;-74
2023/07/22 14:42:30;;;;;;;;;6.00;5.00;;;;;36.10;20.12;100955.59;4974666;28;45977;-76
2023/07/22 14:44:56;;;;;;;;;6.75;6.75;;;;;36.25;20.41;100956.91;4974835;28;45180;-75
2023/07/22 14:47:22;;;;;;;;;1.00;0.00;;;;;36.02;20.20;100934.41;4974461;28;48987;-75
2023/07/22 14:49:47;;;;;;;;;5.75;5.75;;;;;35.84;20.63;100931.63;4974824;28;45341;-74
2023/07/22 14:52:12;;;;;;;;;4.25;4.25;;;;;35.83;20.05;100935.50;4975604;28;45419;-75
2023/07/22 14:54:38;;;;;;;;;5.50;4.50;;;;;35.78;20.60;100916.66;4979585;28;45356;-73
2023/07/22 14:57:04;;;;;;;;;7.00;5.00;;;;;36.12;20.00;100914.34;4955156;28;45353;-74
2023/07/22 14:59:29;;;;;;;;;4.75;4.75;;;;;36.13;19.76;100924.41;4963635;28;45531;-77
2023/07/22 15:01:54;;;;;;;;;3.50;3.50;;;;;36.11;19.81;100929.38;4958474;28;45456;-76
2023/07/22 15:04:20;;;;;;;;;4.00;4.00;;;;;36.26;19.49;100910.31;4956968;28;45479;-77
2023/07/22 15:06:45;;;;;;;;;2.75;2.75;;;;;36.64;19.39;100924.84;4967173;28;45341;-73
2023/07/22 15:09:10;;;;;;;;;3.00;3.00;;;;;35.92;19.74;100922.94;4966331;28;45418;-72
2023/07/22 15:11:37;;;;;;;;;4.00;4.00;;;;;35.75;19.79;100911.53;4965859;28;46207;-71
2023/07/22 15:14:03;;;;;;;;;7.00;4.75;;;;;36.46;19.77;100902.53;4939949;28;45529;-73
2023/07/22 15:16:28;;;;;;;;;3.00;3.00;;;;;37.01;18.78;100900.41;4954261;28;45354;-73
2023/07/22 15:18:53;;;;;;;;;5.00;5.00;;;;;37.15;18.59;100905.81;4963169;28;49022;-76
2023/07/22 15:21:19;;;;;;;;;6.00;5.00;;;;;37.39;18.75;100896.34;4961044;28;52727;-77
2023/07/22 15:23:44;;;;;;;;;5.00;5.00;;;;;37.37;18.53;100902.19;4963928;28;45278;-74
2023/07/22 15:26:10;;;;;;;;;6.00;6.00;;;;;37.38;18.26;100900.25;4950858;28;45461;-78
2023/07/22 15:28:35;;;;;;;;;5.00;3.75;;;;;36.71;18.96;100871.66;4955269;28;45445;-77
2023/07/22 15:31:01;;;;;;;;;4.00;4.00;;;;;37.17;18.65;100889.66;4945691;28;46253;-77
2023/07/22 15:33:26;;;;;;;;;1.50;1.50;;;;;37.35;18.34;100883.94;4954815;28;45580;-75
2023/07/22 15:35:52;;;;;;;;;3.50;3.50;;;;;37.24;18.19;100894.03;4967607;28;45433;-74
2023/07/22 15:38:17;;;;;;;;;4.00;4.00;;;;;37.50;17.95;100881.53;4966483;28;45467;-74
2023/07/22 15:40:43;;;;;;;;;5.25;5.25;;;;;37.81;18.22;100867.16;4968666;28;46716;-76
2023/07/22 15:43:08;;;;;;;;;4.50;4.50;;;;;38.20;17.94;100856.22;4973866;28;45301;-72
2023/07/22 15:45:34;;;;;;;;;4.25;4.25;;;;;38.18;17.71;100858.44;4972917;28;45582;-75
2023/07/22 15:47:59;;;;;;;;;2.00;2.00;;;;;37.59;17.64;100868.88;4973839;28;49932;-73
2023/07/22 15:50:26;;;;;;;;;3.50;3.50;;;;;37.20;18.17;100862.06;4973505;28;45428;-73
2023/07/22 15:52:53;;;;;;;;;4.25;4.25;;;;;37.28;17.67;100858.03;4977111;28;45425;-74